Time,TemperatureF,DewpointF,PressureIn,WindDirection,WindDirectionDegrees,WindSpeedMPH,WindSpeedGustMPH,Humidity,HourlyPrecipIn,Conditions,Clouds,dailyrainin,SoftwareType,DateUTC
2013-01-11 00:01:00,27.0,23.6,29.85,WNW,292,0.0,0.0,87,0.00,,---,0.00,VWS V14.01,2013-01-11 08:01:00,
2013-01-11 00:06:00,27.0,23.6,29.85,WNW,292,0.0,0.0,87,0.00,,---,0.00,VWS V14.01,2013-01-11 08:06:00,
2013-01-11 00:11:00,26.6,23.3,29.85,WNW,292,0.0,0.0,87,0.00,,---,0.00,VWS V14.01,2013-01-11 08:11:00,
2013-01-11 00:16:00,26.6,23.3,29.85,WNW,292,0.0,0.0,87,0.00,,---,0.00,VWS V14.01,2013-01-11 08:16:00,
2013-01-11 00:21:00,26.2,22.9,29.85,WNW,292,0.0,0.0,87,0.00,,---,0.00,VWS V14.01,2013-01-11 08:21:00,
2013-01-11 00:26:00,26.1,22.7,29.85,WNW,292,0.0,0.0,87,0.00,,---,0.00,VWS V14.01,2013-01-11 08:26:00,
2013-01-11 00:31:00,25.7,22.4,29.85,WNW,292,0.0,0.0,87,0.00,,---,0.00,VWS V14.01,2013-01-11 08:31:00,
2013-01-11 00:37:00,25.7,22.4,29.85,WNW,292,0.0,0.0,87,0.00,,---,0.00,VWS V14.01,2013-01-11 08:37:00,
2013-01-11 00:42:00,25.3,22.0,29.85,WNW,292,0.0,0.0,87,0.00,,---,0.00,VWS V14.01,2013-01-11 08:42:00,
2013-01-11 00:47:00,25.0,21.7,29.85,WNW,292,0.0,0.0,87,0.00,,---,0.00,VWS V14.01,2013-01-11 08:47:00,
2013-01-11 00:52:00,25.2,21.8,29.85,WNW,292,0.0,0.0,87,0.00,,---,0.00,VWS V14.01,2013-01-11 08:52:00,
2013-01-11 00:57:00,25.0,21.9,29.85,WNW,292,0.0,0.0,88,0.00,,---,0.00,VWS V14.01,2013-01-11 08:57:00,
2013-01-11 01:02:00,25.2,22.1,29.85,WNW,292,0.0,0.0,88,0.00,,---,0.00,VWS V14.01,2013-01-11 09:02:00,
2013-01-11 01:07:00,25.3,22.3,29.88,WNW,292,0.0,0.0,88,0.00,,---,0.00,VWS V14.01,2013-01-11 09:07:00,
2013-01-11 01:15:00,25.0,21.9,29.88,WNW,292,0.0,0.0,88,0.00,,---,0.00,VWS V14.01,2013-01-11 09:15:00,
2013-01-11 01:20:00,24.8,22.0,29.88,WNW,292,0.0,0.0,89,0.00,,---,0.00,VWS V14.01,2013-01-11 09:20:00,
2013-01-11 01:25:00,24.8,22.0,29.88,WNW,292,0.0,0.0,89,0.00,,---,0.00,VWS V14.01,2013-01-11 09:25:00,
2013-01-11 01:31:00,24.8,22.0,29.88,WNW,292,0.0,0.0,89,0.00,,---,0.00,VWS V14.01,2013-01-11 09:31:00,
2013-01-11 01:36:00,25.0,22.2,29.88,WNW,292,0.0,0.0,89,0.00,,---,0.00,VWS V14.01,2013-01-11 09:36:00,
2013-01-11 01:41:00,25.0,22.2,29.88,WNW,292,0.0,0.0,89,0.00,,---,0.00,VWS V14.01,2013-01-11 09:41:00,
2013-01-11 01:46:00,25.2,22.6,29.88,WNW,292,1.3,1.3,90,0.00,,---,0.00,VWS V14.01,2013-01-11 09:46:00,
2013-01-11 01:51:00,25.3,22.8,29.88,WNW,292,2.2,2.2,90,0.00,,---,0.00,VWS V14.01,2013-01-11 09:51:00,
2013-01-11 01:56:00,25.3,23.1,29.88,WNW,292,1.6,1.6,91,0.00,,---,0.00,VWS V14.01,2013-01-11 09:56:00,
2013-01-11 02:01:00,25.3,23.1,29.88,WNW,292,0.0,0.0,91,0.00,,---,0.00,VWS V14.01,2013-01-11 10:01:00,
2013-01-11 02:06:00,25.3,22.8,29.88,WNW,292,1.3,1.3,90,0.00,,---,0.00,VWS V14.01,2013-01-11 10:06:00,
2013-01-11 02:11:00,25.3,22.8,29.88,WNW,292,0.0,0.0,90,0.00,,---,0.00,VWS V14.01,2013-01-11 10:11:00,
2013-01-11 02:16:00,25.3,22.8,29.88,WNW,292,0.0,0.0,90,0.00,,---,0.00,VWS V14.01,2013-01-11 10:16:00,
2013-01-11 02:21:00,25.2,22.6,29.88,WNW,292,0.0,0.0,90,0.00,,---,0.00,VWS V14.01,2013-01-11 10:21:00,
2013-01-11 02:27:00,25.0,22.5,29.88,WNW,292,0.0,0.0,90,0.00,,---,0.00,VWS V14.01,2013-01-11 10:27:00,
2013-01-11 02:32:00,25.0,22.5,29.88,WNW,292,0.0,0.0,90,0.00,,---,0.00,VWS V14.01,2013-01-11 10:32:00,
2013-01-11 02:37:00,25.2,22.6,29.88,WNW,292,0.0,0.0,90,0.00,,---,0.00,VWS V14.01,2013-01-11 10:37:00,
2013-01-11 02:42:00,25.2,22.6,29.88,WNW,292,0.0,0.0,90,0.00,,---,0.00,VWS V14.01,2013-01-11 10:42:00,
2013-01-11 02:47:00,25.2,22.6,29.88,WNW,292,0.0,0.0,90,0.00,,---,0.00,VWS V14.01,2013-01-11 10:47:00,
2013-01-11 02:52:00,25.0,22.5,29.88,WNW,292,0.0,0.0,90,0.00,,---,0.00,VWS V14.01,2013-01-11 10:52:00,
2013-01-11 02:57:00,25.0,22.2,29.88,WNW,292,0.0,0.0,89,0.00,,---,0.00,VWS V14.01,2013-01-11 10:57:00,
2013-01-11 03:02:00,24.8,22.0,29.88,WNW,292,0.0,0.0,89,0.00,,---,0.00,VWS V14.01,2013-01-11 11:02:00,
2013-01-11 03:07:00,24.8,22.3,29.88,WNW,292,0.0,0.0,90,0.00,,---,0.00,VWS V14.01,2013-01-11 11:07:00,
2013-01-11 03:12:00,24.6,22.1,29.88,WNW,292,0.0,0.0,90,0.00,,---,0.00,VWS V14.01,2013-01-11 11:12:00,
2013-01-11 03:17:00,24.6,22.1,29.91,WNW,292,0.0,0.0,90,0.00,,---,0.00,VWS V14.01,2013-01-11 11:17:00,
2013-01-11 03:22:00,24.6,22.1,29.91,WNW,292,0.0,0.0,90,0.00,,---,0.00,VWS V14.01,2013-01-11 11:22:00,
2013-01-11 03:27:00,24.4,21.9,29.91,WNW,292,0.0,0.0,90,0.00,,---,0.00,VWS V14.01,2013-01-11 11:27:00,
2013-01-11 03:33:00,24.6,22.1,29.88,WNW,292,1.1,1.1,90,0.00,,---,0.00,VWS V14.01,2013-01-11 11:33:00,
2013-01-11 03:38:00,24.6,22.4,29.88,WNW,292,0.0,0.0,91,0.00,,---,0.00,VWS V14.01,2013-01-11 11:38:00,
2013-01-11 03:43:00,24.6,22.4,29.88,WNW,292,2.0,2.0,91,0.00,,---,0.00,VWS V14.01,2013-01-11 11:43:00,
2013-01-11 03:48:00,24.4,22.2,29.88,WNW,292,2.5,2.5,91,0.00,,---,0.00,VWS V14.01,2013-01-11 11:48:00,
2013-01-11 03:53:00,24.3,22.0,29.88,WNW,292,0.0,0.0,91,0.00,,---,0.00,VWS V14.01,2013-01-11 11:53:00,
2013-01-11 03:58:00,24.3,21.8,29.88,WNW,292,0.0,0.0,90,0.00,,---,0.00,VWS V14.01,2013-01-11 11:58:00,
2013-01-11 04:03:00,24.3,22.0,29.88,WNW,292,0.0,0.0,91,0.00,,---,0.00,VWS V14.01,2013-01-11 12:03:00,
2013-01-11 04:08:00,24.3,22.0,29.88,WNW,292,2.7,2.7,91,0.00,,---,0.00,VWS V14.01,2013-01-11 12:08:00,
2013-01-11 04:13:00,24.1,21.8,29.88,WNW,292,2.5,2.5,91,0.00,,---,0.00,VWS V14.01,2013-01-11 12:13:00,
2013-01-11 04:18:00,23.9,21.4,29.88,WNW,292,0.0,0.0,90,0.00,,---,0.00,VWS V14.01,2013-01-11 12:18:00,
2013-01-11 04:23:00,23.5,21.0,29.88,WNW,292,1.6,1.6,90,0.00,,---,0.00,VWS V14.01,2013-01-11 12:23:00,
2013-01-11 04:28:00,23.5,21.0,29.88,WNW,292,0.0,0.0,90,0.00,,---,0.00,VWS V14.01,2013-01-11 12:28:00,
2013-01-11 04:33:00,23.5,21.0,29.88,WNW,292,0.0,0.0,90,0.00,,---,0.00,VWS V14.01,2013-01-11 12:33:00,
2013-01-11 04:39:00,23.4,20.9,29.88,WNW,292,0.0,0.0,90,0.00,,---,0.00,VWS V14.01,2013-01-11 12:39:00,
2013-01-11 04:44:00,23.4,20.9,29.88,WNW,292,0.0,0.0,90,0.00,,---,0.00,VWS V14.01,2013-01-11 12:44:00,
2013-01-11 04:49:00,23.4,20.9,29.88,WNW,292,0.0,0.0,90,0.00,,---,0.00,VWS V14.01,2013-01-11 12:49:00,
2013-01-11 04:54:00,23.4,20.9,29.88,WNW,292,0.0,0.0,90,0.00,,---,0.00,VWS V14.01,2013-01-11 12:54:00,
2013-01-11 04:59:00,23.4,20.9,29.88,WNW,292,0.9,0.9,90,0.00,,---,0.00,VWS V14.01,2013-01-11 12:59:00,
2013-01-11 05:04:00,23.5,21.0,29.88,WNW,292,0.0,0.0,90,0.00,,---,0.00,VWS V14.01,2013-01-11 13:04:00,
2013-01-11 05:09:00,23.5,21.0,29.88,WNW,292,2.5,2.5,90,0.00,,---,0.00,VWS V14.01,2013-01-11 13:09:00,
2013-01-11 05:14:00,23.5,21.0,29.88,WNW,292,0.0,0.0,90,0.00,,---,0.00,VWS V14.01,2013-01-11 13:14:00,
2013-01-11 05:19:00,23.5,21.0,29.91,WNW,292,0.0,0.0,90,0.00,,---,0.00,VWS V14.01,2013-01-11 13:19:00,
2013-01-11 05:24:00,23.4,20.9,29.91,WNW,292,0.0,0.0,90,0.00,,---,0.00,VWS V14.01,2013-01-11 13:24:00,
2013-01-11 05:29:00,23.5,21.0,29.91,WNW,292,0.0,0.0,90,0.00,,---,0.00,VWS V14.01,2013-01-11 13:29:00,
2013-01-11 05:35:00,23.5,21.0,29.94,WNW,292,2.7,2.7,90,0.00,,---,0.00,VWS V14.01,2013-01-11 13:35:00,
2013-01-11 05:39:00,23.4,20.9,29.94,WNW,292,0.0,0.0,90,0.00,,---,0.00,VWS V14.01,2013-01-11 13:39:00,
2013-01-11 05:45:00,23.4,20.9,29.94,WNW,292,0.0,0.0,90,0.00,,---,0.00,VWS V14.01,2013-01-11 13:45:00,
2013-01-11 05:50:00,22.8,20.3,29.94,WNW,292,0.0,0.0,90,0.00,,---,0.00,VWS V14.01,2013-01-11 13:50:00,
2013-01-11 05:55:00,22.8,20.3,29.94,WNW,292,0.0,0.0,90,0.00,,---,0.00,VWS V14.01,2013-01-11 13:55:00,
2013-01-11 06:00:00,22.8,20.3,29.94,WNW,292,0.0,0.0,90,0.00,,---,0.00,VWS V14.01,2013-01-11 14:00:00,
2013-01-11 06:05:00,22.8,20.3,29.91,WNW,292,0.0,0.0,90,0.00,,---,0.00,VWS V14.01,2013-01-11 14:05:00,
2013-01-11 06:10:00,22.8,20.3,29.91,WNW,292,0.0,0.0,90,0.00,,---,0.00,VWS V14.01,2013-01-11 14:10:00,
2013-01-11 06:15:00,22.6,20.1,29.91,WNW,292,0.0,0.0,90,0.00,,---,0.00,VWS V14.01,2013-01-11 14:15:00,
2013-01-11 06:20:00,22.6,20.1,29.94,WNW,292,0.0,0.0,90,0.00,,---,0.00,VWS V14.01,2013-01-11 14:20:00,
2013-01-11 06:25:00,22.5,19.7,29.94,WNW,292,1.6,1.6,89,0.00,,---,0.00,VWS V14.01,2013-01-11 14:25:00,
2013-01-11 06:30:00,22.5,20.0,29.94,WNW,292,2.9,2.9,90,0.00,,---,0.00,VWS V14.01,2013-01-11 14:30:00,
2013-01-11 06:36:00,22.3,19.8,29.97,WNW,292,0.0,0.0,90,0.00,,---,0.00,VWS V14.01,2013-01-11 14:36:00,
2013-01-11 06:41:00,22.3,19.8,29.97,WNW,292,0.0,0.0,90,0.00,,---,0.00,VWS V14.01,2013-01-11 14:41:00,
2013-01-11 06:46:00,22.1,19.6,29.97,WNW,292,0.0,0.0,90,0.00,,---,0.00,VWS V14.01,2013-01-11 14:46:00,
2013-01-11 06:51:00,21.9,19.4,29.97,WNW,292,0.0,0.0,90,0.00,,---,0.00,VWS V14.01,2013-01-11 14:51:00,
2013-01-11 06:56:00,21.9,19.4,29.97,WNW,292,0.0,0.0,90,0.00,,---,0.00,VWS V14.01,2013-01-11 14:56:00,
2013-01-11 07:01:00,21.9,19.4,29.97,WNW,292,0.0,0.0,90,0.00,,---,0.00,VWS V14.01,2013-01-11 15:01:00,
2013-01-11 07:06:00,21.7,19.0,30.00,WNW,292,1.1,1.1,89,0.00,,---,0.00,VWS V14.01,2013-01-11 15:06:00,
2013-01-11 07:11:00,22.1,19.6,30.00,WNW,292,2.5,2.5,90,0.00,,---,0.00,VWS V14.01,2013-01-11 15:11:00,
2013-01-11 07:16:00,21.9,19.4,30.00,WNW,292,0.0,0.0,90,0.00,,---,0.00,VWS V14.01,2013-01-11 15:16:00,
2013-01-11 07:21:00,21.7,19.0,30.00,WNW,292,0.0,0.0,89,0.00,,---,0.00,VWS V14.01,2013-01-11 15:21:00,
2013-01-11 07:26:00,21.4,18.6,30.00,WNW,292,2.5,2.5,89,0.00,,---,0.00,VWS V14.01,2013-01-11 15:26:00,
2013-01-11 07:31:00,21.4,18.6,30.00,WNW,292,2.5,2.5,89,0.00,,---,0.00,VWS V14.01,2013-01-11 15:31:00,
2013-01-11 07:36:00,21.2,18.7,30.00,WNW,292,0.0,0.0,90,0.00,,---,0.00,VWS V14.01,2013-01-11 15:36:00,
2013-01-11 07:42:00,20.7,17.9,30.00,WNW,292,0.0,0.0,89,0.00,,---,0.00,VWS V14.01,2013-01-11 15:42:00,
2013-01-11 07:47:00,20.5,17.8,30.00,WNW,292,1.3,1.3,89,0.00,,---,0.00,VWS V14.01,2013-01-11 15:47:00,
2013-01-11 07:52:00,20.3,17.6,29.97,WNW,292,0.0,0.0,89,0.00,,---,0.00,VWS V14.01,2013-01-11 15:52:00,
2013-01-11 07:57:00,20.3,17.6,29.97,WNW,292,0.0,0.0,89,0.00,,---,0.00,VWS V14.01,2013-01-11 15:57:00,
2013-01-11 08:02:00,20.1,17.4,29.97,WNW,292,0.0,0.0,89,0.00,,---,0.00,VWS V14.01,2013-01-11 16:02:00,
2013-01-11 08:07:00,19.9,17.0,29.97,WNW,292,0.0,0.0,88,0.00,,---,0.00,VWS V14.01,2013-01-11 16:07:00,
2013-01-11 08:12:00,20.3,17.6,29.97,WNW,292,0.0,0.0,89,0.00,,---,0.00,VWS V14.01,2013-01-11 16:12:00,
2013-01-11 08:17:00,20.3,17.6,30.00,WNW,292,0.0,0.0,89,0.00,,---,0.00,VWS V14.01,2013-01-11 16:17:00,
2013-01-11 08:22:00,20.5,17.8,30.00,WNW,292,0.0,0.0,89,0.00,,---,0.00,VWS V14.01,2013-01-11 16:22:00,
2013-01-11 08:27:00,20.7,17.9,30.00,WNW,292,3.1,3.1,89,0.00,,---,0.00,VWS V14.01,2013-01-11 16:27:00,
2013-01-11 08:32:00,20.8,18.4,30.00,WNW,292,0.0,0.0,90,0.00,,---,0.00,VWS V14.01,2013-01-11 16:32:00,
2013-01-11 08:37:00,21.0,18.3,30.00,WNW,292,2.9,2.9,89,0.00,,---,0.00,VWS V14.01,2013-01-11 16:37:00,
2013-01-11 08:43:00,21.7,19.0,30.00,WNW,292,2.9,2.9,89,0.00,,---,0.00,VWS V14.01,2013-01-11 16:43:00,
2013-01-11 08:48:00,25.0,22.5,30.03,WNW,292,0.0,0.0,90,0.00,,---,0.00,VWS V14.01,2013-01-11 16:48:00,
2013-01-11 08:53:00,25.9,23.1,30.03,WNW,292,0.0,0.0,89,0.00,,---,0.00,VWS V14.01,2013-01-11 16:53:00,
2013-01-11 08:58:00,25.0,21.9,30.03,WNW,292,2.0,2.0,88,0.00,,---,0.00,VWS V14.01,2013-01-11 16:58:00,
2013-01-11 09:03:00,24.4,21.1,30.03,WNW,292,0.0,0.0,87,0.00,,---,0.00,VWS V14.01,2013-01-11 17:03:00,
2013-01-11 09:08:00,24.8,21.2,30.03,WNW,292,0.0,0.0,86,0.00,,---,0.00,VWS V14.01,2013-01-11 17:08:00,
2013-01-11 09:13:00,25.3,21.8,30.03,WNW,292,0.0,0.0,86,0.00,,---,0.00,VWS V14.01,2013-01-11 17:13:00,
2013-01-11 09:18:00,26.2,22.6,30.06,WNW,292,0.0,0.0,86,0.00,,---,0.00,VWS V14.01,2013-01-11 17:18:00,
2013-01-11 09:23:00,27.0,23.1,30.06,WNW,292,0.0,0.0,85,0.00,,---,0.00,VWS V14.01,2013-01-11 17:23:00,
2013-01-11 09:28:00,27.5,23.6,30.06,WNW,292,1.3,1.3,85,0.00,,---,0.00,VWS V14.01,2013-01-11 17:28:00,
2013-01-11 09:33:00,28.8,24.8,30.06,WNW,292,0.0,0.0,85,0.00,,---,0.00,VWS V14.01,2013-01-11 17:33:00,
2013-01-11 09:38:00,29.7,25.1,30.06,WNW,292,0.0,0.0,83,0.00,,---,0.00,VWS V14.01,2013-01-11 17:38:00,
2013-01-11 09:43:00,29.8,25.0,30.06,WNW,292,0.0,0.0,82,0.00,,---,0.00,VWS V14.01,2013-01-11 17:43:00,
2013-01-11 09:49:00,32.2,26.1,30.06,WNW,292,0.0,0.0,78,0.00,,---,0.00,VWS V14.01,2013-01-11 17:49:00,
2013-01-11 09:54:00,32.4,23.0,30.06,ESE,112,2.0,2.0,68,0.00,,---,0.00,VWS V14.01,2013-01-11 17:54:00,
2013-01-11 09:59:00,32.4,16.3,30.06,East,90,2.5,2.5,51,0.00,,---,0.00,VWS V14.01,2013-01-11 17:59:00,
2013-01-11 10:04:00,32.5,16.4,30.06,ESE,112,2.5,2.5,51,0.00,,---,0.00,VWS V14.01,2013-01-11 18:04:00,
2013-01-11 10:09:00,32.7,17.9,30.06,ESE,112,3.4,3.4,54,0.00,,---,0.00,VWS V14.01,2013-01-11 18:09:00,
2013-01-11 10:14:00,32.5,16.4,30.06,East,90,2.0,2.0,51,0.00,,---,0.00,VWS V14.01,2013-01-11 18:14:00,
2013-01-11 10:19:00,32.7,16.1,30.06,ESE,112,4.7,4.7,50,0.00,,---,0.00,VWS V14.01,2013-01-11 18:19:00,
2013-01-11 10:24:00,32.7,17.5,30.06,SE,135,1.1,1.1,53,0.00,,---,0.00,VWS V14.01,2013-01-11 18:24:00,
2013-01-11 10:29:00,32.7,17.5,30.06,SE,135,1.1,1.1,53,0.00,,---,0.00,VWS V14.01,2013-01-11 18:29:00,
2013-01-11 10:34:00,32.4,14.9,30.06,East,90,1.6,1.6,48,0.00,,---,0.00,VWS V14.01,2013-01-11 18:34:00,
2013-01-11 10:39:00,32.2,13.2,30.06,East,90,2.2,2.2,45,0.00,,---,0.00,VWS V14.01,2013-01-11 18:39:00,
2013-01-11 10:44:00,32.4,14.4,30.06,SE,135,2.0,2.0,47,0.00,,---,0.00,VWS V14.01,2013-01-11 18:44:00,
2013-01-11 10:49:00,32.5,16.0,30.06,East,90,0.0,0.0,50,0.00,,---,0.00,VWS V14.01,2013-01-11 18:49:00,
2013-01-11 10:55:00,33.1,15.5,30.06,ESE,112,1.6,1.6,48,0.00,,---,0.00,VWS V14.01,2013-01-11 18:55:00,
2013-01-11 11:00:00,33.6,17.0,30.06,North,0,2.0,2.0,50,0.00,,---,0.00,VWS V14.01,2013-01-11 19:00:00,
2013-01-11 11:05:00,34.3,14.2,30.06,ENE,68,1.1,1.1,43,0.00,,---,0.00,VWS V14.01,2013-01-11 19:05:00,
2013-01-11 11:10:00,33.8,13.7,30.06,ESE,112,2.2,2.2,43,0.00,,---,0.00,VWS V14.01,2013-01-11 19:10:00,
2013-01-11 11:15:00,33.1,13.6,30.06,ESE,112,1.1,1.1,44,0.00,,---,0.00,VWS V14.01,2013-01-11 19:15:00,
2013-01-11 11:20:00,32.7,13.7,30.06,ENE,68,1.6,1.6,45,0.00,,---,0.00,VWS V14.01,2013-01-11 19:20:00,
2013-01-11 11:25:00,33.6,13.0,30.06,East,90,3.1,3.1,42,0.00,,---,0.00,VWS V14.01,2013-01-11 19:25:00,
2013-01-11 11:30:00,34.3,13.6,30.06,SE,135,3.8,3.8,42,0.00,,---,0.00,VWS V14.01,2013-01-11 19:30:00,
2013-01-11 11:35:00,34.5,13.8,30.06,East,90,2.7,2.7,42,0.00,,---,0.00,VWS V14.01,2013-01-11 19:35:00,
2013-01-11 11:40:00,34.5,13.3,30.06,ESE,112,2.7,2.7,41,0.00,,---,0.00,VWS V14.01,2013-01-11 19:40:00,
2013-01-11 11:45:00,34.5,13.3,30.06,SE,135,5.4,5.4,41,0.00,,---,0.00,VWS V14.01,2013-01-11 19:45:00,
2013-01-11 11:51:00,34.3,13.1,30.09,ESE,112,2.2,2.2,41,0.00,,---,0.00,VWS V14.01,2013-01-11 19:51:00,
2013-01-11 11:56:00,33.8,12.6,30.09,East,90,1.6,1.6,41,0.00,,---,0.00,VWS V14.01,2013-01-11 19:56:00,
2013-01-11 12:01:00,33.6,13.0,30.09,ESE,112,2.7,2.7,42,0.00,,---,0.00,VWS V14.01,2013-01-11 20:01:00,
2013-01-11 12:06:00,34.3,13.6,30.06,North,0,1.1,1.1,42,0.00,,---,0.00,VWS V14.01,2013-01-11 20:06:00,
2013-01-11 12:11:00,35.4,15.2,30.06,NNE,22,2.0,2.0,43,0.00,,---,0.00,VWS V14.01,2013-01-11 20:11:00,
2013-01-11 12:16:00,35.8,14.9,30.06,ESE,112,2.0,2.0,42,0.00,,---,0.00,VWS V14.01,2013-01-11 20:16:00,
2013-01-11 12:21:00,35.2,13.9,30.09,ESE,112,3.6,3.6,41,0.00,,---,0.00,VWS V14.01,2013-01-11 20:21:00,
2013-01-11 12:26:00,36.1,14.7,30.09,North,0,4.3,4.3,41,0.00,,---,0.00,VWS V14.01,2013-01-11 20:26:00,
2013-01-11 12:31:00,37.0,15.0,30.09,ENE,68,2.9,2.9,40,0.04,,---,0.04,VWS V14.01,2013-01-11 20:31:00,
2013-01-11 12:36:00,36.0,14.0,30.09,East,90,4.9,4.9,40,0.04,,---,0.04,VWS V14.01,2013-01-11 20:36:00,
2013-01-11 12:41:00,36.1,14.2,30.09,NE,45,0.0,0.0,40,0.04,,---,0.04,VWS V14.01,2013-01-11 20:41:00,
2013-01-11 12:47:00,37.2,15.1,30.09,NE,45,2.2,2.2,40,0.04,,---,0.04,VWS V14.01,2013-01-11 20:47:00,
2013-01-11 12:52:00,37.0,14.4,30.09,ESE,112,4.9,4.9,39,0.04,,---,0.04,VWS V14.01,2013-01-11 20:52:00,
2013-01-11 12:57:00,36.9,14.2,30.09,SE,135,5.6,5.6,39,0.09,,---,0.09,VWS V14.01,2013-01-11 20:57:00,
2013-01-11 13:02:00,36.3,13.2,30.09,ESE,112,5.6,5.6,38,0.09,,---,0.09,VWS V14.01,2013-01-11 21:02:00,
2013-01-11 13:07:00,36.0,12.8,30.06,ESE,112,3.8,3.8,38,0.09,,---,0.09,VWS V14.01,2013-01-11 21:07:00,
2013-01-11 13:12:00,35.8,13.3,30.06,ESE,112,4.0,4.0,39,0.09,,---,0.09,VWS V14.01,2013-01-11 21:12:00,
2013-01-11 13:17:00,35.6,12.5,30.09,ESE,112,2.9,2.9,38,0.09,,---,0.09,VWS V14.01,2013-01-11 21:17:00,
2013-01-11 13:22:00,36.0,12.8,30.09,ESE,112,7.4,7.4,38,0.09,,---,0.09,VWS V14.01,2013-01-11 21:22:00,
2013-01-11 13:27:00,36.0,12.8,30.09,ESE,112,3.8,3.8,38,0.09,,---,0.09,VWS V14.01,2013-01-11 21:27:00,
2013-01-11 13:32:00,36.0,12.8,30.09,East,90,3.8,3.8,38,0.05,,---,0.09,VWS V14.01,2013-01-11 21:32:00,
2013-01-11 13:37:00,36.1,13.0,30.09,SSE,158,3.8,3.8,38,0.05,,---,0.09,VWS V14.01,2013-01-11 21:37:00,
2013-01-11 13:42:00,36.0,12.8,30.09,East,90,4.3,4.3,38,0.05,,---,0.09,VWS V14.01,2013-01-11 21:42:00,
2013-01-11 13:47:00,36.1,12.4,30.09,ESE,112,2.7,2.7,37,0.05,,---,0.09,VWS V14.01,2013-01-11 21:47:00,
2013-01-11 13:53:00,36.3,12.6,30.09,ESE,112,3.8,3.8,37,0.05,,---,0.09,VWS V14.01,2013-01-11 21:53:00,
2013-01-11 13:58:00,36.3,11.9,30.09,SE,135,4.3,4.3,36,0.00,,---,0.09,VWS V14.01,2013-01-11 21:58:00,
2013-01-11 14:03:00,36.5,12.7,30.09,ESE,112,4.0,4.0,37,0.00,,---,0.09,VWS V14.01,2013-01-11 22:03:00,
2013-01-11 14:08:00,36.7,12.3,30.09,ESE,112,4.0,4.0,36,0.00,,---,0.09,VWS V14.01,2013-01-11 22:08:00,
2013-01-11 14:13:00,36.1,11.8,30.09,ESE,112,3.1,3.1,36,0.00,,---,0.09,VWS V14.01,2013-01-11 22:13:00,
2013-01-11 14:18:00,34.7,11.1,30.09,ENE,68,2.9,2.9,37,0.00,,---,0.09,VWS V14.01,2013-01-11 22:18:00,
2013-01-11 14:23:00,34.0,10.5,30.09,East,90,2.7,2.7,37,0.00,,---,0.09,VWS V14.01,2013-01-11 22:23:00,
2013-01-11 14:28:00,34.0,11.1,30.09,ESE,112,1.6,1.6,38,0.00,,---,0.09,VWS V14.01,2013-01-11 22:28:00,
2013-01-11 14:33:00,34.7,11.7,30.09,SE,135,3.4,3.4,38,0.00,,---,0.09,VWS V14.01,2013-01-11 22:33:00,
2013-01-11 14:38:00,35.4,11.8,30.09,SE,135,4.9,4.9,37,0.00,,---,0.09,VWS V14.01,2013-01-11 22:38:00,
2013-01-11 14:43:00,35.4,11.8,30.09,ESE,112,3.1,3.1,37,0.00,,---,0.09,VWS V14.01,2013-01-11 22:43:00,
2013-01-11 14:48:00,35.2,11.6,30.09,ESE,112,3.4,3.4,37,0.00,,---,0.09,VWS V14.01,2013-01-11 22:48:00,
2013-01-11 14:54:00,33.8,10.3,30.09,East,90,3.6,3.6,37,0.00,,---,0.09,VWS V14.01,2013-01-11 22:54:00,
2013-01-11 14:59:00,34.0,10.5,30.09,ESE,112,3.1,3.1,37,0.00,,---,0.09,VWS V14.01,2013-01-11 22:59:00,
2013-01-11 15:04:00,34.3,11.4,30.09,East,90,3.6,3.6,38,0.00,,---,0.09,VWS V14.01,2013-01-11 23:04:00,
2013-01-11 15:09:00,34.5,10.9,30.09,ESE,112,3.4,3.4,37,0.00,,---,0.09,VWS V14.01,2013-01-11 23:09:00,
2013-01-11 15:14:00,34.5,10.9,30.09,ESE,112,2.7,2.7,37,0.00,,---,0.09,VWS V14.01,2013-01-11 23:14:00,
2013-01-11 15:19:00,34.9,11.9,30.09,SE,135,0.0,0.0,38,0.00,,---,0.09,VWS V14.01,2013-01-11 23:19:00,
2013-01-11 15:24:00,34.5,10.9,30.09,ENE,68,2.7,2.7,37,0.00,,---,0.09,VWS V14.01,2013-01-11 23:24:00,
2013-01-11 15:29:00,33.6,10.7,30.09,ENE,68,3.1,3.1,38,0.00,,---,0.09,VWS V14.01,2013-01-11 23:29:00,
2013-01-11 15:34:00,32.7,9.9,30.12,East,90,2.0,2.0,38,0.00,,---,0.09,VWS V14.01,2013-01-11 23:34:00,
2013-01-11 15:39:00,32.5,9.2,30.12,East,90,1.3,1.3,37,0.00,,---,0.09,VWS V14.01,2013-01-11 23:39:00,
2013-01-11 15:44:00,31.6,9.0,30.12,ESE,112,0.0,0.0,38,0.00,,---,0.09,VWS V14.01,2013-01-11 23:44:00,
2013-01-11 15:49:00,30.7,8.1,30.12,ESE,112,0.0,0.0,38,0.00,,---,0.09,VWS V14.01,2013-01-11 23:49:00,
2013-01-11 15:54:00,30.0,8.1,30.12,ESE,112,1.1,1.1,39,0.00,,---,0.09,VWS V14.01,2013-01-11 23:54:00,
2013-01-11 15:59:00,29.3,8.0,30.12,ESE,112,0.0,0.0,40,0.00,,---,0.09,VWS V14.01,2013-01-11 23:59:00,
2013-01-11 16:04:00,28.6,7.3,30.09,ESE,112,0.0,0.0,40,0.00,,---,0.09,VWS V14.01,2013-01-12 00:04:00,
2013-01-11 16:10:00,27.9,7.2,30.09,SSW,202,0.0,0.0,41,0.00,,---,0.09,VWS V14.01,2013-01-12 00:10:00,
2013-01-11 16:15:00,27.0,7.5,30.09,South,180,2.5,2.5,43,0.00,,---,0.09,VWS V14.01,2013-01-12 00:15:00,
2013-01-11 16:20:00,26.6,8.6,30.12,SSW,202,2.5,2.5,46,0.00,,---,0.09,VWS V14.01,2013-01-12 00:20:00,
2013-01-11 16:25:00,25.9,8.4,30.12,SSW,202,0.0,0.0,47,0.00,,---,0.09,VWS V14.01,2013-01-12 00:25:00,
2013-01-11 16:30:00,25.7,9.2,30.12,SSW,202,2.7,2.7,49,0.00,,---,0.09,VWS V14.01,2013-01-12 00:30:00,
2013-01-11 16:35:00,25.2,8.7,30.12,SSW,202,1.6,1.6,49,0.00,,---,0.09,VWS V14.01,2013-01-12 00:35:00,
2013-01-11 16:40:00,24.8,9.7,30.12,SSW,202,1.3,1.3,52,0.00,,---,0.09,VWS V14.01,2013-01-12 00:40:00,
2013-01-11 16:45:00,24.4,8.9,30.12,SSW,202,1.1,1.1,51,0.00,,---,0.09,VWS V14.01,2013-01-12 00:45:00,
2013-01-11 16:50:00,24.1,9.0,30.12,SSW,202,2.7,2.7,52,0.00,,---,0.09,VWS V14.01,2013-01-12 00:50:00,
2013-01-11 16:55:00,23.7,8.7,30.12,South,180,2.0,2.0,52,0.00,,---,0.09,VWS V14.01,2013-01-12 00:55:00,
2013-01-11 17:00:00,23.4,8.8,30.12,SSW,202,2.7,2.7,53,0.00,,---,0.09,VWS V14.01,2013-01-12 01:00:00,
2013-01-11 17:06:00,23.0,8.9,30.12,South,180,2.9,2.9,54,0.00,,---,0.09,VWS V14.01,2013-01-12 01:06:00,
2013-01-11 17:11:00,22.8,8.7,30.12,SSW,202,0.0,0.0,54,0.00,,---,0.09,VWS V14.01,2013-01-12 01:11:00,
2013-01-11 17:16:00,22.3,8.2,30.12,SSW,202,0.0,0.0,54,0.00,,---,0.09,VWS V14.01,2013-01-12 01:16:00,
2013-01-11 17:21:00,22.1,8.0,30.12,SSW,202,0.0,0.0,54,0.00,,---,0.09,VWS V14.01,2013-01-12 01:21:00,
2013-01-11 17:26:00,21.9,7.8,30.12,SSW,202,1.3,1.3,54,0.00,,---,0.09,VWS V14.01,2013-01-12 01:26:00,
2013-01-11 17:31:00,21.9,8.2,30.12,SSW,202,2.0,2.0,55,0.00,,---,0.09,VWS V14.01,2013-01-12 01:31:00,
2013-01-11 17:36:00,21.9,8.6,30.12,South,180,1.3,1.3,56,0.00,,---,0.09,VWS V14.01,2013-01-12 01:36:00,
2013-01-11 17:41:00,21.7,8.5,30.12,South,180,3.1,3.1,56,0.00,,---,0.09,VWS V14.01,2013-01-12 01:41:00,
2013-01-11 17:46:00,21.9,9.0,30.12,South,180,2.9,2.9,57,0.00,,---,0.09,VWS V14.01,2013-01-12 01:46:00,
2013-01-11 17:51:00,21.7,8.5,30.15,SSW,202,1.6,1.6,56,0.00,,---,0.09,VWS V14.01,2013-01-12 01:51:00,
2013-01-11 17:56:00,21.4,8.1,30.15,SW,225,2.0,2.0,56,0.00,,---,0.09,VWS V14.01,2013-01-12 01:56:00,
2013-01-11 18:01:00,20.8,7.6,30.15,SW,225,0.0,0.0,56,0.00,,---,0.09,VWS V14.01,2013-01-12 02:01:00,
2013-01-11 18:06:00,20.3,7.1,30.15,SSE,158,2.5,2.5,56,0.00,,---,0.09,VWS V14.01,2013-01-12 02:06:00,
2013-01-11 18:11:00,20.1,8.1,30.15,SSE,158,1.6,1.6,59,0.00,,---,0.09,VWS V14.01,2013-01-12 02:11:00,
2013-01-11 18:16:00,20.1,9.2,30.15,South,180,3.8,3.8,62,0.00,,---,0.09,VWS V14.01,2013-01-12 02:16:00,
2013-01-11 18:21:00,20.3,9.4,30.15,SSW,202,2.0,2.0,62,0.00,,---,0.09,VWS V14.01,2013-01-12 02:21:00,
2013-01-11 18:26:00,20.1,8.5,30.15,SSW,202,0.0,0.0,60,0.00,,---,0.09,VWS V14.01,2013-01-12 02:26:00,
2013-01-11 18:31:00,19.2,7.6,30.15,SSW,202,0.0,0.0,60,0.00,,---,0.09,VWS V14.01,2013-01-12 02:31:00,
2013-01-11 18:36:00,18.9,6.9,30.18,SSE,158,2.0,2.0,59,0.00,,---,0.09,VWS V14.01,2013-01-12 02:36:00,
2013-01-11 18:41:00,19.0,8.2,30.18,ESE,112,2.2,2.2,62,0.00,,---,0.09,VWS V14.01,2013-01-12 02:41:00,
2013-01-11 18:46:00,18.1,7.3,30.18,East,90,1.6,1.6,62,0.00,,---,0.00,VWS V14.01,2013-01-12 02:46:00,
2013-01-11 18:52:00,17.8,7.3,30.15,ESE,112,2.0,2.0,63,0.00,,---,0.09,VWS V14.01,2013-01-12 02:52:00,
2013-01-11 18:57:00,17.8,7.7,30.15,ESE,112,1.3,1.3,64,0.00,,---,0.09,VWS V14.01,2013-01-12 02:57:00,
2013-01-11 19:02:00,17.2,7.2,30.15,ENE,68,0.0,0.0,64,0.00,,---,0.09,VWS V14.01,2013-01-12 03:02:00,
2013-01-11 19:07:00,16.9,6.8,30.18,WNW,292,0.0,0.0,64,0.00,,---,0.09,VWS V14.01,2013-01-12 03:07:00,
2013-01-11 19:12:00,17.1,7.3,30.18,ESE,112,2.0,2.0,65,0.00,,---,0.09,VWS V14.01,2013-01-12 03:12:00,
2013-01-11 19:17:00,17.2,7.8,30.18,ESE,112,0.0,0.0,66,0.00,,---,0.09,VWS V14.01,2013-01-12 03:17:00,
2013-01-11 19:22:00,17.4,8.4,30.18,SE,135,0.0,0.0,67,0.00,,---,0.09,VWS V14.01,2013-01-12 03:22:00,
2013-01-11 19:27:00,17.6,8.5,30.18,SSE,158,0.0,0.0,67,0.00,,---,0.09,VWS V14.01,2013-01-12 03:27:00,
2013-01-11 19:32:00,17.4,8.4,30.18,SSE,158,2.5,2.5,67,0.00,,---,0.09,VWS V14.01,2013-01-12 03:32:00,
2013-01-11 19:37:00,18.0,9.5,30.18,SW,225,1.1,1.1,69,0.00,,---,0.09,VWS V14.01,2013-01-12 03:37:00,
2013-01-11 19:42:00,17.4,9.0,30.18,West,270,0.0,0.0,69,0.00,,---,0.09,VWS V14.01,2013-01-12 03:42:00,
2013-01-11 19:47:00,17.4,8.7,30.18,SW,225,0.0,0.0,68,0.00,,---,0.09,VWS V14.01,2013-01-12 03:47:00,
2013-01-11 19:52:00,17.6,9.2,30.18,SE,135,0.0,0.0,69,0.00,,---,0.09,VWS V14.01,2013-01-12 03:52:00,
2013-01-11 19:57:00,17.4,8.7,30.18,SSW,202,0.0,0.0,68,0.00,,---,0.09,VWS V14.01,2013-01-12 03:57:00,
2013-01-11 20:02:00,17.4,9.0,30.18,SSW,202,0.0,0.0,69,0.00,,---,0.09,VWS V14.01,2013-01-12 04:02:00,
2013-01-11 20:08:00,17.1,8.7,30.18,SSW,202,0.0,0.0,69,0.00,,---,0.09,VWS V14.01,2013-01-12 04:08:00,
2013-01-11 20:13:00,17.2,9.5,30.18,South,180,2.0,2.0,71,0.00,,---,0.09,VWS V14.01,2013-01-12 04:13:00,
2013-01-11 20:18:00,16.7,8.6,30.21,South,180,0.0,0.0,70,0.00,,---,0.09,VWS V14.01,2013-01-12 04:18:00,
2013-01-11 20:23:00,16.3,8.3,30.21,South,180,0.0,0.0,70,0.00,,---,0.09,VWS V14.01,2013-01-12 04:23:00,
2013-01-11 20:28:00,16.0,8.2,30.21,SSE,158,2.5,2.5,71,0.00,,---,0.09,VWS V14.01,2013-01-12 04:28:00,
2013-01-11 20:33:00,15.8,8.4,30.18,SSE,158,1.6,1.6,72,0.00,,---,0.09,VWS V14.01,2013-01-12 04:33:00,
2013-01-11 20:38:00,15.4,7.7,30.18,South,180,0.0,0.0,71,0.00,,---,0.09,VWS V14.01,2013-01-12 04:38:00,
2013-01-11 20:43:00,15.1,7.4,30.18,SSE,158,0.0,0.0,71,0.00,,---,0.09,VWS V14.01,2013-01-12 04:43:00,
2013-01-11 20:48:00,15.1,7.7,30.18,South,180,0.0,0.0,72,0.00,,---,0.09,VWS V14.01,2013-01-12 04:48:00,
2013-01-11 20:53:00,15.1,8.0,30.18,South,180,3.4,3.4,73,0.00,,---,0.09,VWS V14.01,2013-01-12 04:53:00,
2013-01-11 20:58:00,15.1,8.6,30.18,South,180,2.5,2.5,75,0.00,,---,0.09,VWS V14.01,2013-01-12 04:58:00,
2013-01-11 21:00:00,15.3,8.8,30.18,South,180,1.6,1.6,75,0.00,,---,0.09,VWS V14.01,2013-01-12 05:00:00,
2013-01-11 21:01:00,15.1,8.6,30.18,SSW,202,1.1,1.1,75,0.00,,---,0.09,VWS V14.01,2013-01-12 05:01:00,
2013-01-11 21:02:00,15.1,8.6,30.18,SSW,202,0.0,0.0,75,0.00,,---,0.09,VWS V14.01,2013-01-12 05:02:00,
2013-01-11 21:03:00,14.9,8.4,30.18,South,180,1.1,1.1,75,0.00,,---,0.09,VWS V14.01,2013-01-12 05:03:00,
2013-01-11 21:08:00,14.9,8.1,30.18,SSE,158,0.0,0.0,74,0.00,,---,0.09,VWS V14.01,2013-01-12 05:08:00,
2013-01-11 21:13:00,14.5,7.8,30.18,SSW,202,0.0,0.0,74,0.00,,---,0.09,VWS V14.01,2013-01-12 05:13:00,
2013-01-11 21:18:00,14.0,7.2,30.18,West,270,1.6,1.6,74,0.00,,---,0.09,VWS V14.01,2013-01-12 05:18:00,
2013-01-11 21:23:00,14.0,7.6,30.18,West,270,0.0,0.0,75,0.00,,---,0.09,VWS V14.01,2013-01-12 05:23:00,
2013-01-11 21:28:00,13.8,7.4,30.18,WSW,248,0.0,0.0,75,0.00,,---,0.09,VWS V14.01,2013-01-12 05:28:00,
2013-01-11 21:33:00,13.8,7.4,30.18,WSW,248,0.0,0.0,75,0.00,,---,0.09,VWS V14.01,2013-01-12 05:33:00,
2013-01-11 21:38:00,13.5,7.0,30.18,WSW,248,0.0,0.0,75,0.00,,---,0.09,VWS V14.01,2013-01-12 05:38:00,
2013-01-11 21:44:00,13.6,7.2,30.18,WSW,248,0.0,0.0,75,0.00,,---,0.09,VWS V14.01,2013-01-12 05:44:00,
2013-01-11 21:49:00,13.5,7.0,30.18,SSW,202,0.0,0.0,75,0.00,,---,0.09,VWS V14.01,2013-01-12 05:49:00,
2013-01-11 21:54:00,13.6,7.2,30.18,South,180,2.2,2.2,75,0.00,,---,0.09,VWS V14.01,2013-01-12 05:54:00,
2013-01-11 21:59:00,13.3,6.8,30.18,South,180,0.0,0.0,75,0.00,,---,0.09,VWS V14.01,2013-01-12 05:59:00,
2013-01-11 22:04:00,12.9,6.5,30.18,SW,225,0.0,0.0,75,0.00,,---,0.09,VWS V14.01,2013-01-12 06:04:00,
2013-01-11 22:09:00,12.2,5.8,30.18,SW,225,0.0,0.0,75,0.00,,---,0.09,VWS V14.01,2013-01-12 06:09:00,
2013-01-11 22:14:00,12.4,6.0,30.18,SW,225,0.9,0.9,75,0.00,,---,0.09,VWS V14.01,2013-01-12 06:14:00,
2013-01-11 22:19:00,12.2,5.8,30.18,SW,225,0.0,0.0,75,0.00,,---,0.09,VWS V14.01,2013-01-12 06:19:00,
2013-01-11 22:24:00,12.0,5.6,30.18,SSE,158,1.6,1.6,75,0.00,,---,0.09,VWS V14.01,2013-01-12 06:24:00,
2013-01-11 22:29:00,12.2,5.8,30.18,SE,135,0.0,0.0,75,0.00,,---,0.09,VWS V14.01,2013-01-12 06:29:00,
2013-01-11 22:34:00,12.2,5.8,30.18,South,180,0.0,0.0,75,0.00,,---,0.09,VWS V14.01,2013-01-12 06:34:00,
2013-01-11 22:39:00,12.6,6.2,30.18,South,180,0.0,0.0,75,0.00,,---,0.09,VWS V14.01,2013-01-12 06:39:00,
2013-01-11 22:44:00,12.4,6.0,30.18,East,90,0.0,0.0,75,0.00,,---,0.09,VWS V14.01,2013-01-12 06:44:00,
2013-01-11 22:49:00,12.6,6.2,30.18,SSE,158,1.3,1.3,75,0.00,,---,0.09,VWS V14.01,2013-01-12 06:49:00,
2013-01-11 22:54:00,12.9,6.5,30.18,SE,135,2.5,2.5,75,0.00,,---,0.09,VWS V14.01,2013-01-12 06:54:00,
2013-01-11 22:59:00,12.9,6.5,30.18,South,180,2.5,2.5,75,0.00,,---,0.09,VWS V14.01,2013-01-12 06:59:00,
2013-01-11 23:04:00,12.9,6.5,30.18,SSE,158,1.1,1.1,75,0.00,,---,0.09,VWS V14.01,2013-01-12 07:04:00,
2013-01-11 23:10:00,13.3,6.8,30.18,South,180,1.6,1.6,75,0.00,,---,0.09,VWS V14.01,2013-01-12 07:10:00,
2013-01-11 23:15:00,13.5,7.0,30.18,SSE,158,0.0,0.0,75,0.00,,---,0.09,VWS V14.01,2013-01-12 07:15:00,
2013-01-11 23:20:00,13.5,7.0,30.18,ESE,112,2.2,2.2,75,0.00,,---,0.09,VWS V14.01,2013-01-12 07:20:00,
2013-01-11 23:25:00,13.6,7.2,30.18,SE,135,0.0,0.0,75,0.00,,---,0.09,VWS V14.01,2013-01-12 07:25:00,
2013-01-11 23:30:00,13.6,7.2,30.18,East,90,0.0,0.0,75,0.00,,---,0.09,VWS V14.01,2013-01-12 07:30:00,
2013-01-11 23:35:00,13.5,7.0,30.18,ESE,112,2.0,2.0,75,0.00,,---,0.09,VWS V14.01,2013-01-12 07:35:00,
2013-01-11 23:40:00,13.3,6.8,30.18,ENE,68,0.0,0.0,75,0.00,,---,0.09,VWS V14.01,2013-01-12 07:40:00,
2013-01-11 23:45:00,13.5,7.0,30.18,ENE,68,0.0,0.0,75,0.00,,---,0.09,VWS V14.01,2013-01-12 07:45:00,
2013-01-11 23:50:00,12.9,6.5,30.21,NNW,338,0.0,0.0,75,0.00,,---,0.09,VWS V14.01,2013-01-12 07:50:00,
2013-01-11 23:55:00,13.3,6.8,30.21,SW,225,0.0,0.0,75,0.00,,---,0.09,VWS V14.01,2013-01-12 07:55:00,